sensor_id;sensor_type;location;lat;lon;timestamp;temperature;humidity
74368;DHT22;64991;41.090;-8.118;2023-01-01T00:02:47;21.40;83.50
74368;DHT22;64991;41.090;-8.118;2023-01-01T00:07:51;21.30;83.40
74368;DHT22;64991;41.090;-8.118;2023-01-01T00:13:04;21.30;83.20
74368;DHT22;64991;41.090;-8.118;2023-01-01T00:18:09;21.30;83.40
74368;DHT22;64991;41.090;-8.118;2023-01-01T00:23:13;21.30;83.10
74368;DHT22;64991;41.090;-8.118;2023-01-01T00:28:16;21.40;83.30
74368;DHT22;64991;41.090;-8.118;2023-01-01T00:33:21;21.40;83.10
74368;DHT22;64991;41.090;-8.118;2023-01-01T00:38:25;21.40;83.20
74368;DHT22;64991;41.090;-8.118;2023-01-01T00:43:28;21.30;83.00
74368;DHT22;64991;41.090;-8.118;2023-01-01T00:48:33;21.30;83.00
74368;DHT22;64991;41.090;-8.118;2023-01-01T00:53:37;21.40;82.80
74368;DHT22;64991;41.090;-8.118;2023-01-01T00:58:40;21.40;83.00
74368;DHT22;64991;41.090;-8.118;2023-01-01T01:04:02;21.40;82.90
74368;DHT22;64991;41.090;-8.118;2023-01-01T01:09:06;21.40;83.00
74368;DHT22;64991;41.090;-8.118;2023-01-01T01:14:10;21.40;83.10
74368;DHT22;64991;41.090;-8.118;2023-01-01T01:19:14;21.40;83.30
74368;DHT22;64991;41.090;-8.118;2023-01-01T01:24:20;21.50;83.50
74368;DHT22;64991;41.090;-8.118;2023-01-01T01:29:23;21.40;83.70
74368;DHT22;64991;41.090;-8.118;2023-01-01T01:34:28;21.40;83.60
74368;DHT22;64991;41.090;-8.118;2023-01-01T01:39:32;21.40;83.30
74368;DHT22;64991;41.090;-8.118;2023-01-01T01:44:49;21.40;83.10
74368;DHT22;64991;41.090;-8.118;2023-01-01T01:49:57;21.40;83.50
74368;DHT22;64991;41.090;-8.118;2023-01-01T01:55:04;21.40;83.50
74368;DHT22;64991;41.090;-8.118;2023-01-01T02:00:10;21.40;83.40
74368;DHT22;64991;41.090;-8.118;2023-01-01T02:05:16;21.40;83.30
74368;DHT22;64991;41.090;-8.118;2023-01-01T02:10:21;21.40;83.50
74368;DHT22;64991;41.090;-8.118;2023-01-01T02:15:26;21.40;83.50
74368;DHT22;64991;41.090;-8.118;2023-01-01T02:20:36;21.30;83.80
74368;DHT22;64991;41.090;-8.118;2023-01-01T02:25:51;21.30;83.60
74368;DHT22;64991;41.090;-8.118;2023-01-01T02:31:01;21.40;83.60
74368;DHT22;64991;41.090;-8.118;2023-01-01T02:36:06;21.40;83.50
74368;DHT22;64991;41.090;-8.118;2023-01-01T02:41:11;21.30;83.80
74368;DHT22;64991;41.090;-8.118;2023-01-01T02:46:17;21.30;83.60
74368;DHT22;64991;41.090;-8.118;2023-01-01T02:51:22;21.30;83.50
74368;DHT22;64991;41.090;-8.118;2023-01-01T02:56:32;21.30;83.60
74368;DHT22;64991;41.090;-8.118;2023-01-01T03:01:42;21.40;83.70
74368;DHT22;64991;41.090;-8.118;2023-01-01T03:06:50;21.30;83.50
74368;DHT22;64991;41.090;-8.118;2023-01-01T03:11:56;21.30;83.70
74368;DHT22;64991;41.090;-8.118;2023-01-01T03:17:06;21.40;83.60
74368;DHT22;64991;41.090;-8.118;2023-01-01T03:22:12;21.40;83.60
74368;DHT22;64991;41.090;-8.118;2023-01-01T03:27:17;21.30;83.70
74368;DHT22;64991;41.090;-8.118;2023-01-01T03:32:24;21.30;83.60
74368;DHT22;64991;41.090;-8.118;2023-01-01T03:37:52;21.30;83.50
74368;DHT22;64991;41.090;-8.118;2023-01-01T03:42:58;21.30;83.30
74368;DHT22;64991;41.090;-8.118;2023-01-01T03:48:07;21.40;83.50
74368;DHT22;64991;41.090;-8.118;2023-01-01T03:53:13;21.30;83.70
74368;DHT22;64991;41.090;-8.118;2023-01-01T03:58:22;21.30;83.60
74368;DHT22;64991;41.090;-8.118;2023-01-01T04:03:30;21.20;83.50
74368;DHT22;64991;41.090;-8.118;2023-01-01T04:08:35;21.20;83.70
74368;DHT22;64991;41.090;-8.118;2023-01-01T04:13:44;21.30;83.70
74368;DHT22;64991;41.090;-8.118;2023-01-01T04:18:50;21.30;83.50
74368;DHT22;64991;41.090;-8.118;2023-01-01T04:23:53;21.30;83.70
74368;DHT22;64991;41.090;-8.118;2023-01-01T04:28:57;21.30;83.70
74368;DHT22;64991;41.090;-8.118;2023-01-01T04:34:02;21.40;83.60
74368;DHT22;64991;41.090;-8.118;2023-01-01T04:39:05;21.30;83.50
74368;DHT22;64991;41.090;-8.118;2023-01-01T04:44:09;21.30;83.70
74368;DHT22;64991;41.090;-8.118;2023-01-01T04:49:14;21.30;83.60
74368;DHT22;64991;41.090;-8.118;2023-01-01T04:54:17;21.30;83.40
74368;DHT22;64991;41.090;-8.118;2023-01-01T04:59:21;21.30;83.40
74368;DHT22;64991;41.090;-8.118;2023-01-01T05:04:26;21.30;83.90
74368;DHT22;64991;41.090;-8.118;2023-01-01T05:09:29;21.30;83.60
74368;DHT22;64991;41.090;-8.118;2023-01-01T05:14:33;21.40;83.60
74368;DHT22;64991;41.090;-8.118;2023-01-01T05:19:38;21.40;83.10
74368;DHT22;64991;41.090;-8.118;2023-01-01T05:24:41;21.30;83.40
74368;DHT22;64991;41.090;-8.118;2023-01-01T05:29:45;21.30;83.20
74368;DHT22;64991;41.090;-8.118;2023-01-01T05:34:50;21.40;83.30
74368;DHT22;64991;41.090;-8.118;2023-01-01T05:39:53;21.30;83.60
74368;DHT22;64991;41.090;-8.118;2023-01-01T05:44:57;21.20;83.20
74368;DHT22;64991;41.090;-8.118;2023-01-01T05:50:02;21.30;83.40
74368;DHT22;64991;41.090;-8.118;2023-01-01T05:55:05;21.30;83.30
74368;DHT22;64991;41.090;-8.118;2023-01-01T06:00:09;21.40;83.30
74368;DHT22;64991;41.090;-8.118;2023-01-01T06:05:15;21.40;83.10
74368;DHT22;64991;41.090;-8.118;2023-01-01T06:10:19;21.40;83.20
74368;DHT22;64991;41.090;-8.118;2023-01-01T06:15:22;21.30;83.00
74368;DHT22;64991;41.090;-8.118;2023-01-01T06:20:27;21.40;83.30
74368;DHT22;64991;41.090;-8.118;2023-01-01T06:25:31;21.30;83.10
74368;DHT22;64991;41.090;-8.118;2023-01-01T06:30:36;21.40;83.30
74368;DHT22;64991;41.090;-8.118;2023-01-01T06:35:41;21.30;83.30
74368;DHT22;64991;41.090;-8.118;2023-01-01T06:40:53;21.30;82.80
74368;DHT22;64991;41.090;-8.118;2023-01-01T06:45:58;21.40;83.30
74368;DHT22;64991;41.090;-8.118;2023-01-01T06:51:08;21.30;82.90
74368;DHT22;64991;41.090;-8.118;2023-01-01T06:56:12;21.30;82.90
74368;DHT22;64991;41.090;-8.118;2023-01-01T07:01:16;21.30;83.10
74368;DHT22;64991;41.090;-8.118;2023-01-01T07:06:22;21.40;83.10
74368;DHT22;64991;41.090;-8.118;2023-01-01T07:11:27;21.30;83.20
74368;DHT22;64991;41.090;-8.118;2023-01-01T07:16:31;21.30;83.00
74368;DHT22;64991;41.090;-8.118;2023-01-01T07:21:38;21.30;82.70
74368;DHT22;64991;41.090;-8.118;2023-01-01T07:26:44;21.30;82.60
74368;DHT22;64991;41.090;-8.118;2023-01-01T07:31:47;21.40;82.70
74368;DHT22;64991;41.090;-8.118;2023-01-01T07:36:52;21.30;82.80
74368;DHT22;64991;41.090;-8.118;2023-01-01T07:41:57;21.40;82.60
74368;DHT22;64991;41.090;-8.118;2023-01-01T07:47:03;21.30;82.60
74368;DHT22;64991;41.090;-8.118;2023-01-01T07:52:08;21.30;82.70
74368;DHT22;64991;41.090;-8.118;2023-01-01T07:57:12;21.30;82.70
74368;DHT22;64991;41.090;-8.118;2023-01-01T08:02:15;21.30;82.60
74368;DHT22;64991;41.090;-8.118;2023-01-01T08:07:20;21.30;82.50
74368;DHT22;64991;41.090;-8.118;2023-01-01T08:12:24;21.20;82.70
74368;DHT22;64991;41.090;-8.118;2023-01-01T08:17:27;21.30;82.60
74368;DHT22;64991;41.090;-8.118;2023-01-01T08:22:32;21.30;82.50
74368;DHT22;64991;41.090;-8.118;2023-01-01T08:27:36;21.30;82.30
74368;DHT22;64991;41.090;-8.118;2023-01-01T08:32:40;21.30;82.50
74368;DHT22;64991;41.090;-8.118;2023-01-01T08:37:45;21.40;82.60
74368;DHT22;64991;41.090;-8.118;2023-01-01T08:42:48;21.30;77.50
74368;DHT22;64991;41.090;-8.118;2023-01-01T08:47:52;21.50;82.10
74368;DHT22;64991;41.090;-8.118;2023-01-01T08:52:57;21.30;80.20
74368;DHT22;64991;41.090;-8.118;2023-01-01T08:58:04;21.40;80.90
74368;DHT22;64991;41.090;-8.118;2023-01-01T09:03:08;21.50;80.90
74368;DHT22;64991;41.090;-8.118;2023-01-01T09:08:13;21.40;81.10
74368;DHT22;64991;41.090;-8.118;2023-01-01T09:13:18;21.50;81.30
74368;DHT22;64991;41.090;-8.118;2023-01-01T09:18:23;21.50;81.40
74368;DHT22;64991;41.090;-8.118;2023-01-01T09:23:28;21.50;81.60
74368;DHT22;64991;41.090;-8.118;2023-01-01T09:28:32;21.60;82.00
74368;DHT22;64991;41.090;-8.118;2023-01-01T09:33:35;21.50;81.80
74368;DHT22;64991;41.090;-8.118;2023-01-01T09:38:41;21.50;81.40
74368;DHT22;64991;41.090;-8.118;2023-01-01T09:43:47;21.40;80.10
74368;DHT22;64991;41.090;-8.118;2023-01-01T09:48:55;21.30;79.10
74368;DHT22;64991;41.090;-8.118;2023-01-01T09:54:03;21.20;79.60
74368;DHT22;64991;41.090;-8.118;2023-01-01T09:59:09;21.30;79.50
74368;DHT22;64991;41.090;-8.118;2023-01-01T10:09:47;21.20;79.90
74368;DHT22;64991;41.090;-8.118;2023-01-01T10:14:54;21.10;80.40
74368;DHT22;64991;41.090;-8.118;2023-01-01T10:20:02;21.20;80.10
74368;DHT22;64991;41.090;-8.118;2023-01-01T10:25:14;21.20;80.20
74368;DHT22;64991;41.090;-8.118;2023-01-01T10:30:21;21.20;80.40
74368;DHT22;64991;41.090;-8.118;2023-01-01T10:35:27;21.20;80.30
74368;DHT22;64991;41.090;-8.118;2023-01-01T10:40:37;21.20;80.30
74368;DHT22;64991;41.090;-8.118;2023-01-01T10:45:42;21.10;80.90
74368;DHT22;64991;41.090;-8.118;2023-01-01T10:50:48;21.20;80.80
74368;DHT22;64991;41.090;-8.118;2023-01-01T10:55:58;21.20;80.70
74368;DHT22;64991;41.090;-8.118;2023-01-01T11:01:04;21.20;81.00
74368;DHT22;64991;41.090;-8.118;2023-01-01T11:06:11;21.10;81.00
74368;DHT22;64991;41.090;-8.118;2023-01-01T11:11:24;21.10;81.20
74368;DHT22;64991;41.090;-8.118;2023-01-01T11:16:29;21.10;81.00
74368;DHT22;64991;41.090;-8.118;2023-01-01T11:21:33;21.10;80.30
74368;DHT22;64991;41.090;-8.118;2023-01-01T11:26:38;20.90;80.40
74368;DHT22;64991;41.090;-8.118;2023-01-01T11:31:42;20.90;80.50
74368;DHT22;64991;41.090;-8.118;2023-01-01T11:36:47;21.00;80.80
74368;DHT22;64991;41.090;-8.118;2023-01-01T11:41:53;21.20;80.80
74368;DHT22;64991;41.090;-8.118;2023-01-01T11:46:57;21.10;81.30
74368;DHT22;64991;41.090;-8.118;2023-01-01T11:52:03;21.20;81.10
74368;DHT22;64991;41.090;-8.118;2023-01-01T11:57:33;21.20;81.70
74368;DHT22;64991;41.090;-8.118;2023-01-01T12:02:39;20.50;80.50
74368;DHT22;64991;41.090;-8.118;2023-01-01T12:07:46;20.60;83.80
74368;DHT22;64991;41.090;-8.118;2023-01-01T12:12:52;21.00;82.40
74368;DHT22;64991;41.090;-8.118;2023-01-01T12:18:00;21.10;82.30
74368;DHT22;64991;41.090;-8.118;2023-01-01T12:23:06;21.20;82.60
74368;DHT22;64991;41.090;-8.118;2023-01-01T12:28:16;21.40;82.30
74368;DHT22;64991;41.090;-8.118;2023-01-01T12:33:29;21.60;82.70
74368;DHT22;64991;41.090;-8.118;2023-01-01T12:39:03;21.40;82.20
74368;DHT22;64991;41.090;-8.118;2023-01-01T12:44:44;21.40;82.70
74368;DHT22;64991;41.090;-8.118;2023-01-01T12:49:57;21.40;82.70
74368;DHT22;64991;41.090;-8.118;2023-01-01T13:00:44;21.40;83.20
74368;DHT22;64991;41.090;-8.118;2023-01-01T13:05:53;21.40;83.40
74368;DHT22;64991;41.090;-8.118;2023-01-01T13:10:58;21.40;83.50
74368;DHT22;64991;41.090;-8.118;2023-01-01T13:16:07;21.40;83.80
74368;DHT22;64991;41.090;-8.118;2023-01-01T13:21:19;21.40;83.50
74368;DHT22;64991;41.090;-8.118;2023-01-01T13:26:33;21.40;83.80
74368;DHT22;64991;41.090;-8.118;2023-01-01T13:37:28;21.10;84.60
74368;DHT22;64991;41.090;-8.118;2023-01-01T13:42:37;21.20;84.50
74368;DHT22;64991;41.090;-8.118;2023-01-01T13:48:00;21.30;84.00
74368;DHT22;64991;41.090;-8.118;2023-01-01T14:04:19;21.30;85.10
74368;DHT22;64991;41.090;-8.118;2023-01-01T14:09:37;21.30;85.20
74368;DHT22;64991;41.090;-8.118;2023-01-01T14:14:40;21.30;85.30
74368;DHT22;64991;41.090;-8.118;2023-01-01T14:19:45;21.30;85.20
74368;DHT22;64991;41.090;-8.118;2023-01-01T14:24:49;21.40;85.30
74368;DHT22;64991;41.090;-8.118;2023-01-01T14:29:52;21.40;85.20
74368;DHT22;64991;41.090;-8.118;2023-01-01T14:35:00;21.40;85.30
74368;DHT22;64991;41.090;-8.118;2023-01-01T14:40:05;21.50;85.20
74368;DHT22;64991;41.090;-8.118;2023-01-01T14:45:13;21.50;84.80
74368;DHT22;64991;41.090;-8.118;2023-01-01T14:50:21;21.60;85.10
74368;DHT22;64991;41.090;-8.118;2023-01-01T14:55:29;21.60;85.10
74368;DHT22;64991;41.090;-8.118;2023-01-01T15:00:35;21.50;85.60
74368;DHT22;64991;41.090;-8.118;2023-01-01T15:05:40;21.50;85.00
74368;DHT22;64991;41.090;-8.118;2023-01-01T15:10:45;21.40;85.00
74368;DHT22;64991;41.090;-8.118;2023-01-01T15:15:50;21.60;85.30
74368;DHT22;64991;41.090;-8.118;2023-01-01T15:20:55;21.60;85.40
74368;DHT22;64991;41.090;-8.118;2023-01-01T15:25:59;21.60;85.60
74368;DHT22;64991;41.090;-8.118;2023-01-01T15:31:02;21.40;85.50
74368;DHT22;64991;41.090;-8.118;2023-01-01T15:36:08;21.30;85.60
74368;DHT22;64991;41.090;-8.118;2023-01-01T15:41:22;21.40;85.60
74368;DHT22;64991;41.090;-8.118;2023-01-01T15:46:26;21.30;85.70
74368;DHT22;64991;41.090;-8.118;2023-01-01T15:51:34;21.30;85.20
74368;DHT22;64991;41.090;-8.118;2023-01-01T15:56:38;21.20;85.10
74368;DHT22;64991;41.090;-8.118;2023-01-01T16:01:42;21.20;85.00
74368;DHT22;64991;41.090;-8.118;2023-01-01T16:06:48;21.20;85.40
74368;DHT22;64991;41.090;-8.118;2023-01-01T16:11:53;21.20;85.10
74368;DHT22;64991;41.090;-8.118;2023-01-01T16:16:57;21.10;84.80
74368;DHT22;64991;41.090;-8.118;2023-01-01T16:22:04;20.90;84.90
74368;DHT22;64991;41.090;-8.118;2023-01-01T16:27:07;21.00;84.60
74368;DHT22;64991;41.090;-8.118;2023-01-01T16:32:13;21.10;84.50
74368;DHT22;64991;41.090;-8.118;2023-01-01T16:37:19;21.10;84.70
74368;DHT22;64991;41.090;-8.118;2023-01-01T16:42:24;21.10;84.70
74368;DHT22;64991;41.090;-8.118;2023-01-01T16:47:27;21.10;84.60
74368;DHT22;64991;41.090;-8.118;2023-01-01T16:52:32;21.10;85.00
74368;DHT22;64991;41.090;-8.118;2023-01-01T16:57:43;21.00;84.90
74368;DHT22;64991;41.090;-8.118;2023-01-01T17:02:47;21.10;85.50
74368;DHT22;64991;41.090;-8.118;2023-01-01T17:07:52;21.20;85.10
74368;DHT22;64991;41.090;-8.118;2023-01-01T17:12:56;21.10;82.40
74368;DHT22;64991;41.090;-8.118;2023-01-01T17:18:03;20.90;82.10
74368;DHT22;64991;41.090;-8.118;2023-01-01T17:23:08;20.90;82.80
74368;DHT22;64991;41.090;-8.118;2023-01-01T17:28:11;21.00;83.80
74368;DHT22;64991;41.090;-8.118;2023-01-01T17:33:15;21.00;84.00
74368;DHT22;64991;41.090;-8.118;2023-01-01T17:38:20;21.00;84.00
74368;DHT22;64991;41.090;-8.118;2023-01-01T17:43:23;21.10;84.00
74368;DHT22;64991;41.090;-8.118;2023-01-01T17:48:27;21.10;83.90
74368;DHT22;64991;41.090;-8.118;2023-01-01T17:53:32;21.10;83.90
74368;DHT22;64991;41.090;-8.118;2023-01-01T17:58:35;21.10;84.00
74368;DHT22;64991;41.090;-8.118;2023-01-01T18:03:39;21.00;84.00
74368;DHT22;64991;41.090;-8.118;2023-01-01T18:08:44;21.00;84.00
74368;DHT22;64991;41.090;-8.118;2023-01-01T18:13:48;21.00;83.90
74368;DHT22;64991;41.090;-8.118;2023-01-01T18:18:51;20.90;84.10
74368;DHT22;64991;41.090;-8.118;2023-01-01T18:23:56;21.00;84.00
74368;DHT22;64991;41.090;-8.118;2023-01-01T18:29:00;20.90;83.80
74368;DHT22;64991;41.090;-8.118;2023-01-01T18:34:04;21.00;83.90
74368;DHT22;64991;41.090;-8.118;2023-01-01T18:39:12;21.00;83.80
74368;DHT22;64991;41.090;-8.118;2023-01-01T18:44:18;20.90;84.00
74368;DHT22;64991;41.090;-8.118;2023-01-01T18:49:22;21.00;83.70
74368;DHT22;64991;41.090;-8.118;2023-01-01T18:54:28;20.90;83.80
74368;DHT22;64991;41.090;-8.118;2023-01-01T18:59:31;20.90;84.60
74368;DHT22;64991;41.090;-8.118;2023-01-01T19:04:35;20.90;83.90
74368;DHT22;64991;41.090;-8.118;2023-01-01T19:09:40;20.90;83.80
74368;DHT22;64991;41.090;-8.118;2023-01-01T19:14:43;20.80;84.60
74368;DHT22;64991;41.090;-8.118;2023-01-01T19:19:47;20.90;84.50
74368;DHT22;64991;41.090;-8.118;2023-01-01T19:24:54;20.90;84.20
74368;DHT22;64991;41.090;-8.118;2023-01-01T19:29:58;20.80;84.20
74368;DHT22;64991;41.090;-8.118;2023-01-01T19:35:04;20.90;84.10
74368;DHT22;64991;41.090;-8.118;2023-01-01T19:40:15;20.80;84.30
74368;DHT22;64991;41.090;-8.118;2023-01-01T19:45:18;20.80;84.30
74368;DHT22;64991;41.090;-8.118;2023-01-01T19:50:22;20.90;84.20
74368;DHT22;64991;41.090;-8.118;2023-01-01T19:55:27;20.80;84.10
74368;DHT22;64991;41.090;-8.118;2023-01-01T20:00:30;20.90;84.20
74368;DHT22;64991;41.090;-8.118;2023-01-01T20:05:34;20.80;84.00
74368;DHT22;64991;41.090;-8.118;2023-01-01T20:10:39;20.90;84.20
74368;DHT22;64991;41.090;-8.118;2023-01-01T20:15:43;20.80;84.00
74368;DHT22;64991;41.090;-8.118;2023-01-01T20:20:47;20.80;84.20
74368;DHT22;64991;41.090;-8.118;2023-01-01T20:26:10;20.80;84.00
74368;DHT22;64991;41.090;-8.118;2023-01-01T20:31:14;20.70;84.10
74368;DHT22;64991;41.090;-8.118;2023-01-01T20:36:18;20.70;84.10
74368;DHT22;64991;41.090;-8.118;2023-01-01T20:41:40;20.80;84.20
74368;DHT22;64991;41.090;-8.118;2023-01-01T20:46:44;20.70;83.80
74368;DHT22;64991;41.090;-8.118;2023-01-01T20:51:49;20.70;83.90
74368;DHT22;64991;41.090;-8.118;2023-01-01T20:56:55;20.70;83.90
74368;DHT22;64991;41.090;-8.118;2023-01-01T21:01:59;20.70;84.00
74368;DHT22;64991;41.090;-8.118;2023-01-01T21:07:02;20.80;83.80
74368;DHT22;64991;41.090;-8.118;2023-01-01T21:12:08;20.70;84.00
74368;DHT22;64991;41.090;-8.118;2023-01-01T21:17:16;20.70;83.70
74368;DHT22;64991;41.090;-8.118;2023-01-01T21:22:22;20.70;83.80
74368;DHT22;64991;41.090;-8.118;2023-01-01T21:27:28;20.70;84.00
74368;DHT22;64991;41.090;-8.118;2023-01-01T21:32:36;20.70;83.50
74368;DHT22;64991;41.090;-8.118;2023-01-01T21:37:40;20.60;83.70
74368;DHT22;64991;41.090;-8.118;2023-01-01T21:42:52;20.70;83.70
74368;DHT22;64991;41.090;-8.118;2023-01-01T21:47:56;20.70;83.80
74368;DHT22;64991;41.090;-8.118;2023-01-01T21:53:11;20.60;84.00
74368;DHT22;64991;41.090;-8.118;2023-01-01T21:58:19;20.60;83.80
74368;DHT22;64991;41.090;-8.118;2023-01-01T22:03:42;20.70;83.40
74368;DHT22;64991;41.090;-8.118;2023-01-01T22:08:45;20.60;83.40
74368;DHT22;64991;41.090;-8.118;2023-01-01T22:13:50;20.70;83.70
74368;DHT22;64991;41.090;-8.118;2023-01-01T22:18:54;20.50;83.70
74368;DHT22;64991;41.090;-8.118;2023-01-01T22:23:58;20.50;83.70
74368;DHT22;64991;41.090;-8.118;2023-01-01T22:29:07;20.60;83.50
74368;DHT22;64991;41.090;-8.118;2023-01-01T22:34:16;20.50;83.30
74368;DHT22;64991;41.090;-8.118;2023-01-01T22:39:25;20.60;83.30
74368;DHT22;64991;41.090;-8.118;2023-01-01T22:44:31;20.50;83.30
74368;DHT22;64991;41.090;-8.118;2023-01-01T22:49:37;20.50;83.50
74368;DHT22;64991;41.090;-8.118;2023-01-01T22:54:41;20.60;83.30
74368;DHT22;64991;41.090;-8.118;2023-01-01T22:59:46;20.60;83.40
74368;DHT22;64991;41.090;-8.118;2023-01-01T23:04:50;20.50;82.90
74368;DHT22;64991;41.090;-8.118;2023-01-01T23:09:54;20.60;83.20
74368;DHT22;64991;41.090;-8.118;2023-01-01T23:14:59;20.60;83.10
74368;DHT22;64991;41.090;-8.118;2023-01-01T23:20:19;20.50;83.00
74368;DHT22;64991;41.090;-8.118;2023-01-01T23:25:23;20.60;83.30
74368;DHT22;64991;41.090;-8.118;2023-01-01T23:30:30;20.50;83.10
74368;DHT22;64991;41.090;-8.118;2023-01-01T23:35:34;20.50;83.10
74368;DHT22;64991;41.090;-8.118;2023-01-01T23:40:38;20.50;82.90
74368;DHT22;64991;41.090;-8.118;2023-01-01T23:45:42;20.50;82.80
74368;DHT22;64991;41.090;-8.118;2023-01-01T23:50:46;20.40;82.80
74368;DHT22;64991;41.090;-8.118;2023-01-01T23:55:50;20.50;82.80
